createdAt,value
2019-01-21T00:01:23.148Z,15.83
2019-01-21T00:03:51.840Z,20.75
2019-01-21T00:09:09.099Z,21.20
2019-01-21T00:11:37.795Z,19.25
2019-01-21T00:16:54.343Z,22.35
2019-01-21T00:21:57.113Z,25.60
2019-01-21T00:24:25.727Z,23.20
2019-01-21T00:29:42.234Z,30.45
2019-01-21T00:32:10.799Z,24.87
2019-01-21T00:34:39.399Z,22.90
2019-01-21T00:37:07.967Z,21.62
2019-01-21T00:39:37.274Z,20.72
2019-01-21T00:42:06.298Z,22.42
2019-01-21T00:44:34.894Z,30.45
2019-01-21T00:47:03.482Z,31.50
2019-01-21T00:49:32.061Z,27.82
2019-01-21T00:52:01.523Z,27.17
2019-01-21T00:54:30.111Z,36.03
2019-01-21T00:56:58.822Z,26.30
2019-01-21T00:59:27.405Z,23.32
2019-01-21T01:02:15.231Z,26.37
2019-01-21T01:04:43.839Z,33.18
2019-01-21T01:10:00.175Z,28.77
2019-01-21T01:12:28.756Z,24.37
2019-01-21T01:14:57.338Z,23.18
2019-01-21T01:17:25.940Z,29.55
2019-01-21T01:22:29.234Z,24.37
2019-01-21T01:24:58.641Z,26.02
2019-01-21T01:27:27.211Z,27.52
2019-01-21T01:29:55.791Z,26.20
2019-01-21T01:32:24.386Z,33.38
2019-01-21T01:34:53.387Z,24.90
2019-01-21T01:37:22.007Z,26.82
2019-01-21T01:39:50.595Z,29.52
2019-01-21T01:42:19.184Z,25.25
2019-01-21T01:44:47.772Z,36.23
2019-01-21T01:52:25.328Z,28.80
2019-01-21T01:57:47.800Z,23.60
2019-01-21T02:00:16.855Z,30.82
2019-01-21T02:02:45.520Z,29.25
2019-01-21T02:05:14.211Z,28.32
2019-01-21T02:07:42.818Z,31.07
2019-01-21T02:10:32.230Z,33.28
2019-01-21T02:13:00.929Z,32.53
2019-01-21T02:15:29.512Z,24.32
2019-01-21T02:17:58.390Z,28.67
2019-01-21T02:20:26.955Z,29.27
2019-01-21T02:22:58.888Z,34.45
2019-01-21T02:26:05.990Z,32.85
2019-01-21T02:28:57.192Z,37.30
2019-01-21T02:32:04.290Z,36.23
2019-01-21T02:35:11.439Z,32.95
2019-01-21T02:38:18.907Z,32.53
2019-01-21T02:41:13.626Z,27.73
2019-01-21T02:44:20.731Z,28.55
2019-01-21T02:47:11.444Z,33.45
2019-01-21T02:50:18.679Z,28.07
2019-01-21T02:53:25.757Z,30.23
2019-01-21T02:56:28.039Z,33.50
2019-01-21T02:59:35.135Z,30.88
2019-01-21T03:02:27.779Z,30.72
2019-01-21T03:05:35.119Z,37.60
2019-01-21T03:08:36.462Z,35.52
2019-01-21T03:11:39.381Z,29.45
2019-01-21T03:14:46.451Z,41.05
2019-01-21T03:21:11.808Z,30.12
2019-01-21T03:24:18.970Z,30.37
2019-01-21T03:27:26.867Z,35.15
2019-01-21T03:30:28.901Z,27.73
2019-01-21T03:33:22.353Z,32.38
2019-01-21T03:36:17.908Z,29.57
2019-01-21T03:39:14.576Z,29.95
2019-01-21T03:42:05.366Z,21.73
2019-01-21T03:45:12.651Z,31.42
2019-01-21T03:48:03.881Z,33.48
2019-01-21T03:50:58.812Z,32.17
2019-01-21T03:53:50.896Z,28.00
2019-01-21T03:56:29.033Z,27.82
2019-01-21T03:59:22.712Z,32.40
2019-01-21T04:02:29.820Z,31.40
2019-01-21T04:08:49.973Z,31.30
2019-01-21T04:11:57.095Z,25.12
2019-01-21T04:15:04.201Z,22.75
2019-01-21T04:18:11.310Z,25.12
2019-01-21T04:21:18.446Z,20.82
2019-01-21T04:24:44.658Z,24.27
2019-01-21T04:27:36.197Z,27.22
2019-01-21T04:30:29.063Z,22.55
2019-01-21T04:33:22.714Z,24.05
2019-01-21T04:36:29.817Z,24.90
2019-01-21T04:39:20.577Z,21.65
2019-01-21T04:42:27.766Z,19.57
2019-01-21T04:45:34.860Z,22.93
2019-01-21T04:48:32.883Z,14.83
2019-01-21T04:51:27.691Z,15.78
2019-01-21T04:58:05.311Z,13.58
2019-01-21T05:01:12.404Z,10.80
2019-01-21T05:04:19.576Z,15.30
2019-01-21T05:07:14.132Z,12.25
2019-01-21T05:10:21.238Z,9.35
2019-01-21T05:13:28.326Z,6.75
2019-01-21T05:20:05.322Z,12.93
2019-01-21T05:23:12.422Z,12.33
2019-01-21T05:26:19.547Z,12.28
2019-01-21T05:29:10.429Z,11.90
2019-01-21T05:32:17.507Z,10.50
2019-01-21T05:35:10.338Z,9.40
2019-01-21T05:38:17.455Z,6.95
2019-01-21T05:41:24.652Z,8.35
2019-01-21T05:44:19.841Z,6.05
2019-01-21T05:47:25.710Z,6.50
2019-01-21T05:50:17.559Z,5.65
2019-01-21T05:53:24.662Z,6.25
2019-01-21T05:56:31.749Z,8.20
2019-01-21T05:59:30.504Z,6.65
2019-01-21T06:02:29.961Z,6.85
2019-01-21T06:05:16.507Z,10.93
2019-01-21T06:07:55.944Z,4.85
2019-01-21T06:10:48.199Z,4.00
2019-01-21T06:13:55.339Z,5.03
2019-01-21T06:16:49.951Z,2.55
2019-01-21T06:19:36.884Z,2.12
2019-01-21T06:22:37.414Z,2.80
2019-01-21T06:25:29.106Z,6.72
2019-01-21T06:32:19.708Z,3.98
2019-01-21T06:34:59.433Z,6.62
2019-01-21T06:38:06.539Z,4.80
2019-01-21T06:41:13.662Z,3.60
2019-01-21T06:44:05.264Z,3.37
2019-01-21T06:47:12.605Z,5.50
2019-01-21T06:50:19.712Z,7.28
2019-01-21T06:53:26.822Z,2.98
2019-01-21T06:56:34.047Z,5.12
2019-01-21T06:59:41.181Z,3.45
2019-01-21T07:02:32.203Z,9.40
2019-01-21T07:05:24.988Z,8.88
2019-01-21T07:08:24.574Z,3.12
2019-01-21T07:11:34.458Z,3.12
2019-01-21T07:14:41.555Z,2.35
2019-01-21T07:21:01.036Z,7.37
2019-01-21T07:23:54.167Z,1.85
2019-01-21T07:30:23.980Z,1.45
2019-01-21T07:33:31.073Z,2.25
2019-01-21T07:36:22.168Z,1.42
2019-01-21T07:39:15.402Z,3.33
2019-01-21T07:42:22.506Z,2.30
2019-01-21T07:45:16.297Z,2.37
2019-01-21T07:48:11.334Z,1.60
2019-01-21T07:51:18.438Z,2.58
2019-01-21T07:58:09.399Z,1.52
2019-01-21T08:01:21.549Z,2.22
2019-01-21T08:04:28.654Z,1.70
2019-01-21T08:07:19.818Z,6.08
2019-01-21T08:13:17.849Z,2.47
2019-01-21T08:16:11.667Z,10.13
2019-01-21T08:19:03.426Z,4.12
2019-01-21T08:22:10.536Z,4.12
2019-01-21T08:28:48.108Z,4.37
2019-01-21T08:31:55.221Z,4.15
2019-01-21T08:34:46.354Z,2.80
2019-01-21T08:37:53.469Z,4.50
2019-01-21T08:41:00.596Z,2.95
2019-01-21T08:43:55.956Z,2.17
2019-01-21T08:46:47.046Z,6.50
2019-01-21T08:53:04.690Z,4.37
2019-01-21T08:55:56.194Z,3.83
2019-01-21T08:59:03.298Z,5.80
2019-01-21T09:02:12.947Z,4.90
2019-01-21T09:05:20.066Z,5.05
2019-01-21T09:08:27.223Z,4.50
2019-01-21T09:11:37.367Z,4.12
2019-01-21T09:14:32.698Z,4.80
2019-01-21T09:17:39.843Z,4.80
2019-01-21T09:20:49.696Z,3.20
2019-01-21T09:23:56.800Z,4.25
2019-01-21T09:26:49.375Z,4.25
2019-01-21T09:29:56.476Z,9.55
2019-01-21T09:32:47.117Z,7.50
2019-01-21T09:35:38.595Z,4.58
2019-01-21T09:38:45.706Z,4.97
2019-01-21T09:41:52.815Z,6.72
2019-01-21T09:47:54.203Z,7.67
2019-01-21T09:50:22.884Z,6.10
2019-01-21T09:52:51.768Z,7.27
2019-01-21T09:56:00.210Z,5.77
2019-01-21T09:58:49.825Z,3.40
2019-01-21T10:01:58.254Z,3.17
2019-01-21T10:04:53.037Z,7.43
2019-01-21T10:08:01.358Z,5.23
2019-01-21T10:10:54.080Z,3.00
2019-01-21T10:14:01.173Z,6.40
2019-01-21T10:17:08.307Z,6.33
2019-01-21T10:20:15.401Z,7.90
2019-01-21T10:23:09.464Z,5.00
2019-01-21T10:26:16.546Z,9.77
2019-01-21T10:29:11.691Z,6.63
2019-01-21T10:35:27.512Z,9.47
2019-01-21T10:38:46.563Z,6.53
2019-01-21T10:41:22.452Z,2.40
2019-01-21T10:43:59.372Z,8.30
2019-01-21T10:46:53.602Z,3.80
2019-01-21T10:49:49.991Z,5.00
2019-01-21T10:52:44.361Z,6.40
2019-01-21T10:55:40.472Z,6.40
2019-01-21T10:58:47.560Z,5.97
2019-01-21T11:01:54.665Z,5.83
2019-01-21T11:05:04.604Z,7.90
2019-01-21T11:08:14.474Z,5.80
2019-01-21T11:11:05.072Z,9.20
2019-01-21T11:13:52.009Z,4.47
2019-01-21T11:16:43.624Z,7.17
2019-01-21T11:19:50.735Z,4.70
2019-01-21T11:22:46.091Z,6.73
2019-01-21T11:25:53.287Z,9.43
2019-01-21T11:28:44.734Z,6.75
2019-01-21T11:31:51.878Z,3.90
2019-01-21T11:35:01.831Z,6.70
2019-01-21T11:38:04.686Z,6.70
2019-01-21T11:40:55.771Z,5.80
2019-01-21T11:43:47.308Z,4.92
2019-01-21T11:46:42.535Z,3.15
2019-01-21T11:49:49.629Z,8.10
2019-01-21T11:52:43.249Z,9.08
2019-01-21T11:55:31.871Z,7.05
2019-01-21T11:58:56.828Z,5.58
2019-01-21T12:02:03.936Z,7.15
2019-01-21T12:04:55.207Z,5.67
2019-01-21T12:08:03.326Z,11.43
2019-01-21T12:10:57.372Z,8.48
2019-01-21T12:13:53.859Z,11.57
2019-01-21T12:16:52.595Z,9.20
2019-01-21T12:19:59.115Z,6.17
2019-01-21T12:23:09.081Z,3.90
2019-01-21T12:25:53.422Z,5.47
2019-01-21T12:29:03.358Z,4.37
2019-01-21T12:31:59.293Z,5.73
2019-01-21T12:34:41.734Z,5.70
2019-01-21T12:37:47.954Z,4.87
2019-01-21T12:40:49.597Z,7.00
2019-01-21T12:44:07.479Z,2.73
2019-01-21T12:46:43.824Z,2.60
2019-01-21T12:49:47.371Z,2.43
2019-01-21T12:52:27.950Z,1.80
2019-01-21T12:55:49.936Z,1.90
2019-01-21T12:58:28.186Z,3.53
2019-01-21T13:01:10.969Z,4.53
2019-01-21T13:03:58.394Z,4.10
2019-01-21T13:06:49.676Z,3.40
2019-01-21T13:10:00.646Z,6.10
2019-01-21T13:13:19.883Z,9.10
2019-01-21T13:16:29.797Z,7.30
2019-01-21T13:19:32.034Z,7.57
2019-01-21T13:22:27.925Z,8.10
2019-01-21T13:25:46.696Z,7.70
2019-01-21T13:29:02.887Z,7.00
2019-01-21T13:32:18.921Z,6.63
2019-01-21T13:35:31.033Z,10.40
2019-01-21T13:38:14.708Z,4.57
2019-01-21T13:41:15.457Z,8.07
2019-01-21T13:44:19.979Z,7.90
2019-01-21T13:47:13.619Z,4.13
2019-01-21T13:49:50.540Z,4.93
2019-01-21T13:52:46.096Z,9.90
2019-01-21T13:55:24.951Z,8.40
2019-01-21T13:58:45.702Z,14.23
2019-01-21T14:01:39.498Z,14.80
2019-01-21T14:04:38.730Z,11.70
2019-01-21T14:07:44.958Z,12.70
2019-01-21T14:10:43.883Z,9.40
2019-01-21T14:13:27.342Z,12.10
2019-01-21T14:16:01.715Z,17.27
2019-01-21T14:19:01.417Z,13.83
2019-01-21T14:21:44.692Z,6.83
2019-01-21T14:24:57.097Z,8.98
2019-01-21T14:27:49.241Z,9.40
2019-01-21T14:30:35.301Z,13.53
2019-01-21T14:33:32.242Z,12.80
2019-01-21T14:36:52.725Z,11.53
2019-01-21T14:39:56.032Z,17.23
2019-01-21T14:42:54.024Z,15.68
2019-01-21T14:45:49.946Z,10.18
2019-01-21T14:48:46.716Z,9.88
2019-01-21T14:51:51.296Z,16.60
2019-01-21T14:54:44.571Z,21.12
2019-01-21T14:57:48.556Z,16.65
2019-01-21T15:00:43.989Z,15.80
2019-01-21T15:03:31.407Z,27.70
2019-01-21T15:06:38.351Z,19.30
2019-01-21T15:09:59.097Z,16.60
2019-01-21T15:13:04.112Z,17.37
2019-01-21T15:16:04.928Z,15.32
2019-01-21T15:18:48.336Z,16.00
2019-01-21T15:21:34.105Z,12.50
2019-01-21T15:24:17.384Z,20.23
2019-01-21T15:26:59.602Z,24.80
2019-01-21T15:29:56.577Z,35.75
2019-01-21T15:33:10.952Z,24.05
2019-01-21T15:36:14.992Z,23.40
2019-01-21T15:39:19.795Z,32.40
2019-01-21T15:42:12.442Z,23.62
2019-01-21T15:45:22.401Z,29.05
2019-01-21T15:48:46.197Z,24.55
2019-01-21T15:51:57.996Z,20.88
2019-01-21T15:54:58.234Z,21.95
2019-01-21T15:58:01.081Z,27.37
2019-01-21T16:01:06.446Z,27.37
2019-01-21T16:03:53.088Z,25.65
2019-01-21T16:06:41.385Z,30.25
2019-01-21T16:09:36.013Z,34.23
2019-01-21T16:12:53.210Z,28.55
2019-01-21T16:15:51.593Z,30.68
2019-01-21T16:18:29.055Z,33.80
2019-01-21T16:21:22.974Z,29.37
2019-01-21T16:24:38.957Z,27.90
2019-01-21T16:27:34.543Z,24.47
2019-01-21T16:30:21.486Z,32.48
2019-01-21T16:33:10.743Z,27.85
2019-01-21T16:36:24.144Z,34.60
2019-01-21T16:39:00.351Z,31.10
2019-01-21T16:41:51.884Z,28.77
2019-01-21T16:44:20.687Z,32.48
2019-01-21T16:46:49.301Z,32.75
2019-01-21T16:49:17.863Z,31.95
2019-01-21T16:51:46.708Z,26.05
2019-01-21T16:54:15.541Z,29.45
2019-01-21T16:56:44.120Z,33.60
2019-01-21T16:59:12.710Z,23.07
2019-01-21T17:01:41.279Z,19.48
2019-01-21T17:04:09.934Z,22.15
2019-01-21T17:06:39.532Z,20.15
2019-01-21T17:09:10.756Z,25.10
2019-01-21T17:11:40.358Z,19.52
2019-01-21T17:14:12.987Z,15.78
2019-01-21T17:16:41.598Z,18.85
2019-01-21T17:19:10.184Z,22.48
2019-01-21T17:21:38.796Z,27.50
2019-01-21T17:24:07.335Z,20.97
2019-01-21T17:26:35.985Z,19.30
2019-01-21T17:29:04.727Z,31.50
2019-01-21T17:31:33.372Z,18.35
2019-01-21T17:34:02.152Z,27.25
2019-01-21T17:36:31.163Z,25.70
2019-01-21T17:38:59.791Z,25.12
2019-01-21T17:41:28.390Z,23.18
2019-01-21T17:43:56.984Z,10.95
2019-01-21T17:46:25.551Z,9.45
2019-01-21T17:48:54.238Z,9.98
2019-01-21T17:51:22.836Z,10.10
2019-01-21T17:53:51.613Z,11.95
2019-01-21T17:56:20.254Z,15.48
2019-01-21T17:58:48.842Z,13.03
2019-01-21T18:01:17.657Z,17.07
2019-01-21T18:03:46.221Z,8.30
2019-01-21T18:06:14.822Z,14.45
2019-01-21T18:08:43.701Z,8.75
2019-01-21T18:11:12.321Z,9.28
2019-01-21T18:13:40.875Z,13.78
2019-01-21T18:16:09.551Z,8.10
2019-01-21T18:18:38.164Z,11.85
2019-01-21T18:21:07.557Z,12.90
2019-01-21T18:23:36.152Z,6.45
2019-01-21T18:26:05.378Z,13.13
2019-01-21T18:28:34.162Z,13.43
2019-01-21T18:31:03.629Z,10.05
2019-01-21T18:36:06.369Z,12.33
2019-01-21T18:38:35.471Z,8.88
2019-01-21T18:41:04.357Z,11.15
2019-01-21T18:43:32.996Z,16.32
2019-01-21T18:46:01.724Z,8.90
2019-01-21T18:48:49.814Z,8.73
2019-01-21T18:51:18.548Z,10.48
2019-01-21T18:53:47.276Z,12.80
2019-01-21T18:56:15.967Z,13.10
2019-01-21T19:01:18.726Z,11.35
2019-01-21T19:03:47.322Z,10.00
2019-01-21T19:06:15.922Z,13.10
2019-01-21T19:08:44.528Z,12.50
2019-01-21T19:11:13.432Z,12.88
2019-01-21T19:13:42.107Z,12.63
2019-01-21T19:16:10.686Z,13.18
2019-01-21T19:18:39.251Z,12.43
2019-01-21T19:21:08.009Z,11.68
2019-01-21T19:23:36.674Z,12.75
2019-01-21T19:26:05.477Z,9.25
2019-01-21T19:28:34.055Z,17.32
2019-01-21T19:31:02.805Z,7.60
2019-01-21T19:33:31.393Z,10.68
2019-01-21T19:35:59.980Z,11.25
2019-01-21T19:38:28.538Z,13.72
2019-01-21T19:40:57.148Z,7.37
2019-01-21T19:43:25.821Z,9.20
2019-01-21T19:45:54.638Z,12.45
2019-01-21T19:48:23.576Z,13.18
2019-01-21T19:50:52.205Z,10.90
2019-01-21T19:56:08.463Z,11.60
2019-01-21T20:01:24.738Z,8.85
2019-01-21T20:03:53.622Z,7.83
2019-01-21T20:06:22.357Z,11.85
2019-01-21T20:08:51.270Z,15.58
2019-01-21T20:11:19.894Z,21.12
2019-01-21T20:13:48.531Z,10.00
2019-01-21T20:16:17.107Z,13.40
2019-01-21T20:18:45.690Z,8.10
2019-01-21T20:21:15.449Z,8.90
2019-01-21T20:23:44.072Z,9.23
2019-01-21T20:26:13.635Z,16.32
2019-01-21T20:28:43.030Z,10.82
2019-01-21T20:31:11.862Z,9.18
2019-01-21T20:33:40.576Z,8.58
2019-01-21T20:36:09.481Z,11.70
2019-01-21T20:38:38.079Z,8.10
2019-01-21T20:41:06.968Z,10.63
2019-01-21T20:43:35.553Z,10.58
2019-01-21T20:46:04.321Z,11.55
2019-01-21T20:51:06.847Z,8.28
2019-01-21T20:53:35.620Z,6.70
2019-01-21T20:56:04.155Z,10.95
2019-01-21T20:58:32.789Z,8.90
2019-01-21T21:01:01.415Z,10.82
2019-01-21T21:03:30.037Z,8.85
2019-01-21T21:05:58.714Z,11.22
2019-01-21T21:08:27.302Z,10.30
2019-01-21T21:10:55.882Z,8.73
2019-01-21T21:13:24.478Z,9.88
2019-01-21T21:15:53.241Z,6.92
2019-01-21T21:18:21.832Z,19.35
2019-01-21T21:20:50.449Z,5.28
2019-01-21T21:23:19.016Z,9.60
2019-01-21T21:25:47.595Z,8.78
2019-01-21T21:28:16.185Z,8.05
2019-01-21T21:30:44.784Z,9.70
2019-01-21T21:33:13.426Z,6.55
2019-01-21T21:35:42.048Z,8.58
2019-01-21T21:38:10.618Z,5.00
2019-01-21T21:40:39.197Z,3.20
2019-01-21T21:43:07.801Z,6.10
2019-01-21T21:45:36.655Z,7.65
2019-01-21T21:48:05.377Z,5.85
2019-01-21T21:50:33.998Z,6.15
2019-01-21T21:53:02.673Z,7.67
2019-01-21T21:55:31.347Z,5.05
2019-01-21T21:58:00.186Z,7.05
2019-01-21T22:03:36.313Z,6.10
2019-01-21T22:06:05.304Z,5.03
2019-01-21T22:08:34.142Z,4.05
2019-01-21T22:11:02.750Z,7.80
2019-01-21T22:13:31.331Z,5.60
2019-01-21T22:15:59.943Z,7.03
2019-01-21T22:18:28.804Z,5.10
2019-01-21T22:20:57.616Z,3.95
2019-01-21T22:23:26.207Z,7.40
2019-01-21T22:25:54.815Z,5.17
2019-01-21T22:28:44.478Z,3.98
2019-01-21T22:31:32.363Z,7.03
2019-01-21T22:34:20.201Z,4.67
2019-01-21T22:36:48.793Z,3.83
2019-01-21T22:39:17.397Z,2.60
2019-01-21T22:42:05.225Z,2.75
2019-01-21T22:44:35.570Z,4.10
2019-01-21T22:47:04.451Z,3.70
2019-01-21T22:49:33.034Z,2.75
2019-01-21T22:52:01.630Z,7.85
2019-01-21T22:54:30.202Z,2.85
2019-01-21T22:57:00.553Z,2.72
2019-01-21T22:59:29.380Z,3.10
2019-01-21T23:01:57.980Z,4.20
2019-01-21T23:04:26.828Z,2.83
2019-01-21T23:06:55.432Z,3.77
2019-01-21T23:09:24.331Z,2.72
2019-01-21T23:11:52.920Z,2.33
2019-01-21T23:14:21.499Z,3.72
2019-01-21T23:16:50.163Z,7.08
2019-01-21T23:19:18.761Z,2.65
2019-01-21T23:21:47.373Z,2.30
2019-01-21T23:24:17.757Z,1.60
2019-01-21T23:26:46.593Z,1.82
2019-01-21T23:29:15.169Z,1.30
2019-01-21T23:31:43.786Z,0.90
2019-01-21T23:34:12.354Z,1.95
2019-01-21T23:36:40.924Z,1.42
2019-01-21T23:39:09.552Z,1.52
2019-01-21T23:41:38.113Z,1.98
2019-01-21T23:44:06.714Z,6.53
2019-01-21T23:46:35.515Z,1.92
2019-01-21T23:49:04.095Z,1.85
2019-01-21T23:51:34.471Z,3.27
2019-01-21T23:54:03.060Z,1.27
2019-01-21T23:56:31.643Z,2.75
2019-01-21T23:59:00.307Z,4.33
